sensor_id;sensor_type;location;lat;lon;timestamp;pressure;altitude;pressure_sealevel;temperature;humidity
70458;BME280;57919;56.194;95.716;2023-04-01T00:04:05;101345.81;;;-11.94;59.07
70458;BME280;57919;56.194;95.716;2023-04-01T00:14:07;101361.91;;;-11.57;57.87
70458;BME280;57919;56.194;95.716;2023-04-01T00:24:09;101367.38;;;-10.98;57.12
70458;BME280;57919;56.194;95.716;2023-04-01T00:34:12;101387.75;;;-10.61;55.46
70458;BME280;57919;56.194;95.716;2023-04-01T00:44:32;101404.88;;;-10.44;55.57
70458;BME280;57919;56.194;95.716;2023-04-01T00:54:38;101428.75;;;-10.03;54.90
70458;BME280;57919;56.194;95.716;2023-04-01T01:04:40;101430.91;;;-9.29;54.58
70458;BME280;57919;56.194;95.716;2023-04-01T01:14:48;101423.38;;;-8.48;53.07
70458;BME280;57919;56.194;95.716;2023-04-01T01:35:34;101456.22;;;-6.54;51.16
70458;BME280;57919;56.194;95.716;2023-04-01T01:45:47;101466.09;;;-5.82;50.13
70458;BME280;57919;56.194;95.716;2023-04-01T01:55:50;101480.81;;;-5.33;48.62
70458;BME280;57919;56.194;95.716;2023-04-01T02:05:57;101485.47;;;-5.13;46.99
70458;BME280;57919;56.194;95.716;2023-04-01T02:16:06;101499.13;;;-4.72;46.92
70458;BME280;57919;56.194;95.716;2023-04-01T02:26:13;101508.63;;;-3.94;46.00
70458;BME280;57919;56.194;95.716;2023-04-01T02:36:16;101527.63;;;-3.12;44.08
70458;BME280;57919;56.194;95.716;2023-04-01T02:46:18;101541.56;;;-3.46;44.48
70458;BME280;57919;56.194;95.716;2023-04-01T02:56:20;101557.81;;;-2.66;43.54
70458;BME280;57919;56.194;95.716;2023-04-01T03:06:23;101560.56;;;-2.28;42.77
70458;BME280;57919;56.194;95.716;2023-04-01T03:16:24;101570.31;;;-1.58;42.66
70458;BME280;57919;56.194;95.716;2023-04-01T03:26:26;101576.47;;;-1.30;42.30
70458;BME280;57919;56.194;95.716;2023-04-01T03:36:29;101583.53;;;-1.35;41.17
70458;BME280;57919;56.194;95.716;2023-04-01T03:46:31;101586.16;;;-1.14;41.37
70458;BME280;57919;56.194;95.716;2023-04-01T03:56:33;101586.22;;;-1.43;40.94
70458;BME280;57919;56.194;95.716;2023-04-01T04:06:35;101586.97;;;-0.87;41.03
70458;BME280;57919;56.194;95.716;2023-04-01T04:16:38;101595.03;;;-1.19;40.84
70458;BME280;57919;56.194;95.716;2023-04-01T04:26:41;101592.97;;;-0.43;40.86
70458;BME280;57919;56.194;95.716;2023-04-01T04:36:43;101594.44;;;0.04;38.82
70458;BME280;57919;56.194;95.716;2023-04-01T04:46:44;101606.34;;;-0.58;40.00
70458;BME280;57919;56.194;95.716;2023-04-01T04:56:51;101605.53;;;-0.78;40.23
70458;BME280;57919;56.194;95.716;2023-04-01T05:06:55;101603.63;;;-0.46;39.59
70458;BME280;57919;56.194;95.716;2023-04-01T05:16:58;101621.50;;;-0.86;39.70
70458;BME280;57919;56.194;95.716;2023-04-01T05:27:00;101608.00;;;-0.39;39.38
70458;BME280;57919;56.194;95.716;2023-04-01T05:37:04;101605.53;;;0.61;38.84
70458;BME280;57919;56.194;95.716;2023-04-01T05:47:06;101615.69;;;1.10;38.59
70458;BME280;57919;56.194;95.716;2023-04-01T05:57:08;101621.84;;;0.17;38.30
70458;BME280;57919;56.194;95.716;2023-04-01T06:07:15;101620.88;;;0.28;38.91
70458;BME280;57919;56.194;95.716;2023-04-01T06:17:26;101624.41;;;0.30;38.36
70458;BME280;57919;56.194;95.716;2023-04-01T06:38:11;101618.63;;;-0.32;39.01
70458;BME280;57919;56.194;95.716;2023-04-01T06:59:17;101640.16;;;-1.10;39.38
70458;BME280;57919;56.194;95.716;2023-04-01T07:09:26;101641.94;;;-1.37;39.81
70458;BME280;57919;56.194;95.716;2023-04-01T07:20:09;101645.47;;;-1.24;39.84
70458;BME280;57919;56.194;95.716;2023-04-01T07:30:19;101639.31;;;-1.44;40.27
70458;BME280;57919;56.194;95.716;2023-04-01T07:40:36;101638.41;;;-1.86;40.34
70458;BME280;57919;56.194;95.716;2023-04-01T07:51:01;101645.50;;;-1.62;40.13
70458;BME280;57919;56.194;95.716;2023-04-01T08:22:34;101641.06;;;-1.34;40.49
70458;BME280;57919;56.194;95.716;2023-04-01T08:43:20;101643.72;;;-1.46;41.39
70458;BME280;57919;56.194;95.716;2023-04-01T10:38:19;101668.75;;;-3.20;44.03
70458;BME280;57919;56.194;95.716;2023-04-01T11:09:35;101700.38;;;-4.25;45.50
70458;BME280;57919;56.194;95.716;2023-04-01T11:30:47;101712.06;;;-4.74;46.12
70458;BME280;57919;56.194;95.716;2023-04-01T11:41:13;101718.88;;;-4.89;45.94
70458;BME280;57919;56.194;95.716;2023-04-01T12:02:40;101741.31;;;-5.18;46.51
70458;BME280;57919;56.194;95.716;2023-04-01T12:13:11;101755.44;;;-5.14;47.61
70458;BME280;57919;56.194;95.716;2023-04-01T12:33:54;101782.81;;;-6.04;47.73
70458;BME280;57919;56.194;95.716;2023-04-01T12:54:42;101799.38;;;-6.50;48.66
70458;BME280;57919;56.194;95.716;2023-04-01T13:15:36;101826.03;;;-7.10;49.63
70458;BME280;57919;56.194;95.716;2023-04-01T13:25:51;101832.25;;;-7.40;49.88
70458;BME280;57919;56.194;95.716;2023-04-01T13:36:27;101845.72;;;-7.61;49.73
70458;BME280;57919;56.194;95.716;2023-04-01T13:46:52;101847.47;;;-7.91;50.29
70458;BME280;57919;56.194;95.716;2023-04-01T14:59:49;101879.59;;;-9.61;54.17
70458;BME280;57919;56.194;95.716;2023-04-01T15:20:22;101898.00;;;-10.52;57.14
70458;BME280;57919;56.194;95.716;2023-04-01T15:41:15;101922.09;;;-10.59;57.60
70458;BME280;57919;56.194;95.716;2023-04-01T16:02:27;101930.28;;;-10.93;58.77
70458;BME280;57919;56.194;95.716;2023-04-01T16:23:52;101943.88;;;-11.61;59.51
70458;BME280;57919;56.194;95.716;2023-04-01T17:05:42;101959.28;;;-12.42;60.18
70458;BME280;57919;56.194;95.716;2023-04-01T17:16:29;101972.59;;;-12.18;59.00
70458;BME280;57919;56.194;95.716;2023-04-01T17:26:42;101971.00;;;-11.96;58.71
70458;BME280;57919;56.194;95.716;2023-04-01T18:39:33;101956.38;;;-12.48;58.53
70458;BME280;57919;56.194;95.716;2023-04-01T19:00:02;101930.47;;;-12.62;58.59
70458;BME280;57919;56.194;95.716;2023-04-01T19:10:17;101933.59;;;-12.69;58.36
70458;BME280;57919;56.194;95.716;2023-04-01T19:20:31;101932.78;;;-12.68;58.86
70458;BME280;57919;56.194;95.716;2023-04-01T19:51:00;101923.84;;;-12.56;58.08
70458;BME280;57919;56.194;95.716;2023-04-01T20:01:08;101930.56;;;-12.79;58.02
70458;BME280;57919;56.194;95.716;2023-04-01T20:11:34;101931.06;;;-13.21;59.76
70458;BME280;57919;56.194;95.716;2023-04-01T20:21:45;101933.22;;;-13.47;60.17
70458;BME280;57919;56.194;95.716;2023-04-01T20:52:40;101924.06;;;-13.89;60.89
70458;BME280;57919;56.194;95.716;2023-04-01T21:03:15;101921.28;;;-14.08;61.55
70458;BME280;57919;56.194;95.716;2023-04-01T21:23:45;101942.41;;;-14.18;60.80
70458;BME280;57919;56.194;95.716;2023-04-01T22:15:02;101942.78;;;-14.74;61.31
70458;BME280;57919;56.194;95.716;2023-04-01T22:25:14;101953.53;;;-14.83;61.44
70458;BME280;57919;56.194;95.716;2023-04-01T22:35:39;101951.66;;;-15.00;62.46
70458;BME280;57919;56.194;95.716;2023-04-01T22:45:54;101951.31;;;-15.21;63.17
70458;BME280;57919;56.194;95.716;2023-04-01T22:56:01;101957.28;;;-15.37;62.98
70458;BME280;57919;56.194;95.716;2023-04-01T23:06:05;101965.41;;;-15.75;64.22
70458;BME280;57919;56.194;95.716;2023-04-01T23:16:08;101974.97;;;-15.74;64.75
70458;BME280;57919;56.194;95.716;2023-04-01T23:26:25;101979.06;;;-15.77;64.74
70458;BME280;57919;56.194;95.716;2023-04-01T23:36:40;101975.81;;;-15.88;64.57
70458;BME280;57919;56.194;95.716;2023-04-01T23:46:46;101987.19;;;-15.28;63.69
70458;BME280;57919;56.194;95.716;2023-04-01T23:56:53;101990.19;;;-14.47;63.00
